createdAt,value
2019-01-16T00:02:16.008Z,99.90
2019-01-16T00:05:05.890Z,99.90
2019-01-16T00:07:58.895Z,99.90
2019-01-16T00:10:44.881Z,99.90
2019-01-16T00:13:32.036Z,99.90
2019-01-16T00:16:10.444Z,99.90
2019-01-16T00:19:00.406Z,99.90
2019-01-16T00:21:52.991Z,99.90
2019-01-16T00:24:40.674Z,99.90
2019-01-16T00:27:29.116Z,99.90
2019-01-16T00:30:15.388Z,99.90
2019-01-16T00:33:06.126Z,99.90
2019-01-16T00:35:52.527Z,99.90
2019-01-16T00:38:47.710Z,99.90
2019-01-16T00:41:37.676Z,99.90
2019-01-16T00:44:26.435Z,99.90
2019-01-16T00:47:15.912Z,99.90
2019-01-16T00:50:18.089Z,99.90
2019-01-16T00:53:04.893Z,99.90
2019-01-16T00:55:53.343Z,99.90
2019-01-16T00:58:50.904Z,99.90
2019-01-16T01:01:30.869Z,99.90
2019-01-16T01:04:16.948Z,99.90
2019-01-16T01:07:06.180Z,99.90
2019-01-16T01:10:11.965Z,99.90
2019-01-16T01:13:01.940Z,99.90
2019-01-16T01:15:50.713Z,99.90
2019-01-16T01:18:40.783Z,99.90
2019-01-16T01:21:41.891Z,99.90
2019-01-16T01:24:24.355Z,99.90
2019-01-16T01:27:12.818Z,99.90
2019-01-16T01:30:06.368Z,99.90
2019-01-16T01:32:52.416Z,99.90
2019-01-16T01:35:38.891Z,99.90
2019-01-16T01:38:32.463Z,99.90
2019-01-16T01:41:20.451Z,99.90
2019-01-16T01:44:13.670Z,99.90
2019-01-16T01:47:02.031Z,99.90
2019-01-16T01:49:42.900Z,99.90
2019-01-16T01:52:39.086Z,99.90
2019-01-16T01:55:34.473Z,99.90
2019-01-16T01:58:27.855Z,99.90
2019-01-16T03:02:19.318Z,99.90
2019-01-16T03:05:03.217Z,99.90
2019-01-16T03:08:02.736Z,99.90
2019-01-16T03:10:48.230Z,99.90
2019-01-16T03:13:40.918Z,99.90
2019-01-16T03:16:30.451Z,99.90
2019-01-16T03:19:19.800Z,99.90
2019-01-16T03:22:10.089Z,99.90
2019-01-16T03:24:59.564Z,99.90
2019-01-16T03:27:54.874Z,99.90
2019-01-16T03:30:48.350Z,99.90
2019-01-16T03:33:36.842Z,99.90
2019-01-16T03:36:25.414Z,99.90
2019-01-16T03:39:08.264Z,99.90
2019-01-16T03:41:57.837Z,99.90
2019-01-16T03:44:53.730Z,99.90
2019-01-16T03:47:49.612Z,99.90
2019-01-16T03:50:54.386Z,99.90
2019-01-16T03:53:43.481Z,99.90
2019-01-16T03:56:32.852Z,99.90
2019-01-16T03:59:28.786Z,99.90
2019-01-16T04:02:12.022Z,99.90
2019-01-16T04:04:51.344Z,99.90
2019-01-16T04:07:35.910Z,99.90
2019-01-16T04:10:25.876Z,99.90
2019-01-16T04:13:05.034Z,99.90
2019-01-16T04:15:46.247Z,99.90
2019-01-16T04:18:44.550Z,99.90
2019-01-16T04:21:46.550Z,99.90
2019-01-16T04:24:44.805Z,99.90
2019-01-16T04:27:36.025Z,99.90
2019-01-16T04:30:31.032Z,99.90
2019-01-16T04:33:26.749Z,99.90
2019-01-16T04:36:22.063Z,99.90
2019-01-16T04:39:18.531Z,99.90
2019-01-16T04:42:12.781Z,99.90
2019-01-16T04:45:05.119Z,99.90
2019-01-16T04:48:04.558Z,99.90
2019-01-16T04:51:01.560Z,99.90
2019-01-16T04:54:09.791Z,99.90
2019-01-16T04:57:00.121Z,99.90
2019-01-16T05:00:05.529Z,99.90
2019-01-16T05:02:55.400Z,99.90
2019-01-16T05:05:52.456Z,99.90
2019-01-16T05:08:50.785Z,99.90
2019-01-16T05:11:46.436Z,99.90
2019-01-16T05:14:32.298Z,99.90
2019-01-16T05:17:20.902Z,99.90
2019-01-16T05:20:09.975Z,99.90
2019-01-16T05:23:09.496Z,99.90
2019-01-16T05:25:53.768Z,99.90
2019-01-16T05:28:42.791Z,99.90
2019-01-16T05:31:32.775Z,99.90
2019-01-16T05:34:21.847Z,99.90
2019-01-16T05:37:20.321Z,99.90
2019-01-16T05:40:00.266Z,99.90
2019-01-16T05:43:05.339Z,99.90
2019-01-16T05:45:55.325Z,99.90
2019-01-16T05:48:43.085Z,99.90
2019-01-16T05:51:38.877Z,99.90
2019-01-16T05:54:31.864Z,99.90
2019-01-16T05:57:13.525Z,99.90
2019-01-16T06:00:06.797Z,99.90
2019-01-16T06:03:06.160Z,99.90
2019-01-16T06:06:01.989Z,99.90
2019-01-16T06:08:55.641Z,99.90
2019-01-16T06:11:45.655Z,99.90
2019-01-16T06:14:41.354Z,99.90
2019-01-16T06:17:30.016Z,99.90
2019-01-16T06:20:26.148Z,99.90
2019-01-16T06:23:14.018Z,99.90
2019-01-16T06:26:09.809Z,99.90
2019-01-16T06:28:54.000Z,99.90
2019-01-16T06:31:52.667Z,99.90
2019-01-16T06:34:44.357Z,99.90
2019-01-16T06:37:38.079Z,99.90
2019-01-16T06:40:25.562Z,99.90
2019-01-16T06:43:15.153Z,99.90
2019-01-16T06:46:11.118Z,99.90
2019-01-16T06:48:59.243Z,99.90
2019-01-16T06:51:48.675Z,99.90
2019-01-16T06:54:32.333Z,99.90
2019-01-16T06:57:20.551Z,99.90
2019-01-16T07:00:07.571Z,99.90
2019-01-16T07:03:06.938Z,99.90
2019-01-16T07:05:59.258Z,99.90
2019-01-16T07:08:52.263Z,99.90
2019-01-16T07:11:57.410Z,99.90
2019-01-16T07:14:56.686Z,99.90
2019-01-16T07:17:45.062Z,99.90
2019-01-16T07:20:29.107Z,99.90
2019-01-16T07:23:11.334Z,99.90
2019-01-16T07:26:06.732Z,99.90
2019-01-16T07:28:59.311Z,99.90
2019-01-16T07:31:51.348Z,99.90
2019-01-16T07:34:53.585Z,99.90
2019-01-16T07:37:50.008Z,99.90
2019-01-16T07:40:39.895Z,99.90
2019-01-16T07:44:00.262Z,99.90
2019-01-16T07:46:48.817Z,99.90
2019-01-16T07:49:42.199Z,99.90
2019-01-16T07:52:24.234Z,99.90
2019-01-16T07:55:08.576Z,99.90
2019-01-16T07:58:16.563Z,99.90
2019-01-16T08:01:21.188Z,99.90
2019-01-16T08:04:17.317Z,99.90
2019-01-16T08:07:06.071Z,99.90
2019-01-16T08:09:56.367Z,99.90
2019-01-16T08:12:44.586Z,99.90
2019-01-16T08:15:48.965Z,99.90
2019-01-16T08:18:32.816Z,99.90
2019-01-16T08:21:32.074Z,99.90
2019-01-16T08:24:20.295Z,99.90
2019-01-16T08:27:02.621Z,99.90
2019-01-16T08:29:50.394Z,99.90
2019-01-16T08:32:45.799Z,99.90
2019-01-16T08:35:35.908Z,99.90
2019-01-16T08:38:18.465Z,99.90
2019-01-16T08:41:11.913Z,99.90
2019-01-16T08:44:16.849Z,99.90
2019-01-16T08:47:09.423Z,99.90
2019-01-16T08:49:53.274Z,99.90
2019-01-16T08:52:42.269Z,99.90
2019-01-16T08:55:35.156Z,99.90
2019-01-16T08:58:27.823Z,99.90
2019-01-16T09:01:16.062Z,99.90
2019-01-16T09:04:04.443Z,99.90
2019-01-16T09:06:45.912Z,99.90
2019-01-16T09:09:35.497Z,99.90
2019-01-16T09:12:34.025Z,99.90
2019-01-16T09:15:43.186Z,99.90
2019-01-16T09:18:39.503Z,99.90
2019-01-16T09:21:22.443Z,99.90
2019-01-16T09:24:10.873Z,99.90
2019-01-16T09:27:00.856Z,99.90
2019-01-16T09:29:59.852Z,99.90
2019-01-16T09:32:43.446Z,99.90
2019-01-16T09:35:22.018Z,99.90
2019-01-16T09:38:18.540Z,99.90
2019-01-16T09:40:57.983Z,99.90
2019-01-16T09:43:57.168Z,99.90
2019-01-16T09:46:47.886Z,99.90
2019-01-16T09:49:37.881Z,99.90
2019-01-16T09:52:27.855Z,99.90
2019-01-16T09:55:32.541Z,99.90
2019-01-16T09:58:27.406Z,99.90
2019-01-16T10:01:16.037Z,99.90
2019-01-16T10:04:24.109Z,99.90
2019-01-16T10:07:12.697Z,99.90
2019-01-16T10:10:05.858Z,99.90
2019-01-16T10:12:49.371Z,99.90
2019-01-16T10:15:38.860Z,99.90
2019-01-16T10:18:37.985Z,99.90
2019-01-16T10:21:18.727Z,99.90
2019-01-16T10:24:08.003Z,99.90
2019-01-16T10:27:07.714Z,99.90
2019-01-16T10:30:12.439Z,99.90
2019-01-16T10:33:09.187Z,99.90
2019-01-16T10:36:07.792Z,99.90
2019-01-16T10:38:56.224Z,99.90
2019-01-16T10:41:58.582Z,99.90
2019-01-16T10:44:48.574Z,99.90
2019-01-16T10:47:29.956Z,99.90
2019-01-16T10:50:18.624Z,99.90
2019-01-16T10:53:06.883Z,99.90
2019-01-16T10:55:55.694Z,99.90
2019-01-16T10:58:41.449Z,99.90
2019-01-16T11:01:29.556Z,99.90
2019-01-16T11:04:19.669Z,99.90
2019-01-16T11:07:08.883Z,99.90
2019-01-16T11:10:03.916Z,99.90
2019-01-16T11:12:59.599Z,99.90
2019-01-16T11:15:46.584Z,99.90
2019-01-16T11:18:31.935Z,99.90
2019-01-16T11:21:21.226Z,99.90
2019-01-16T11:24:13.775Z,99.90
2019-01-16T11:27:02.279Z,99.90
2019-01-16T11:30:02.811Z,99.90
2019-01-16T11:33:04.004Z,99.90
2019-01-16T11:36:02.851Z,99.90
2019-01-16T11:39:04.437Z,99.90
2019-01-16T11:41:54.295Z,99.90
2019-01-16T11:44:43.532Z,99.90
2019-01-16T11:47:26.391Z,99.90
2019-01-16T11:50:25.474Z,99.90
2019-01-16T11:53:13.676Z,99.90
2019-01-16T11:56:02.340Z,99.90
2019-01-16T11:58:51.938Z,99.90
2019-01-16T12:01:56.620Z,97.40
2019-01-16T12:04:52.199Z,94.90
2019-01-16T12:07:45.783Z,92.50
2019-01-16T12:10:33.947Z,92.10
2019-01-16T12:13:23.864Z,91.90
2019-01-16T12:16:06.806Z,94.00
2019-01-16T12:18:55.948Z,94.90
2019-01-16T12:21:44.605Z,96.70
2019-01-16T12:24:23.343Z,97.20
2019-01-16T12:27:11.651Z,98.10
2019-01-16T12:30:07.354Z,98.40
2019-01-16T12:32:57.291Z,97.30
2019-01-16T12:35:53.526Z,97.10
2019-01-16T12:38:43.409Z,96.90
2019-01-16T12:41:45.675Z,97.50
2019-01-16T12:44:34.586Z,97.30
2019-01-16T12:47:15.763Z,97.70
2019-01-16T12:50:17.065Z,96.40
2019-01-16T12:53:09.740Z,95.20
2019-01-16T12:56:01.591Z,94.00
2019-01-16T12:59:03.218Z,93.60
2019-01-16T13:02:11.355Z,92.30
2019-01-16T13:04:59.890Z,91.60
2019-01-16T13:07:44.935Z,91.70
2019-01-16T13:10:34.838Z,93.00
2019-01-16T13:13:24.925Z,92.60
2019-01-16T13:16:26.565Z,92.30
2019-01-16T13:19:49.361Z,90.70
2019-01-16T13:22:35.534Z,87.90
2019-01-16T13:25:24.121Z,88.20
2019-01-16T13:28:28.215Z,84.00
2019-01-16T13:31:22.695Z,87.10
2019-01-16T13:34:10.669Z,88.10
2019-01-16T13:36:55.029Z,85.20
2019-01-16T13:39:36.312Z,81.70
2019-01-16T13:42:32.175Z,81.20
2019-01-16T13:45:20.825Z,79.80
2019-01-16T13:48:01.752Z,79.20
2019-01-16T13:50:42.936Z,76.70
2019-01-16T13:53:33.919Z,79.50
2019-01-16T13:56:33.101Z,79.80
2019-01-16T14:03:23.124Z,82.10
2019-01-16T14:06:47.075Z,84.70
2019-01-16T14:09:43.285Z,86.90
2019-01-16T14:12:42.124Z,87.90
2019-01-16T14:15:47.781Z,89.70
2019-01-16T14:18:46.254Z,90.00
2019-01-16T14:21:57.009Z,90.50
2019-01-16T14:24:58.645Z,91.10
2019-01-16T14:27:54.785Z,92.50
2019-01-16T14:30:59.349Z,92.80
2019-01-16T14:33:49.694Z,93.00
2019-01-16T14:36:57.865Z,93.40
2019-01-16T14:39:52.060Z,93.20
2019-01-16T14:42:29.066Z,91.90
2019-01-16T14:45:24.028Z,92.40
2019-01-16T14:48:01.585Z,92.00
2019-01-16T14:51:09.126Z,92.20
2019-01-16T14:53:54.972Z,92.80
2019-01-16T14:56:43.640Z,92.90
2019-01-16T14:59:46.070Z,92.90
2019-01-16T15:02:38.395Z,93.00
2019-01-16T15:05:32.421Z,92.70
2019-01-16T15:08:20.503Z,93.20
2019-01-16T15:11:08.289Z,93.90
2019-01-16T15:14:13.578Z,93.70
2019-01-16T15:17:05.915Z,93.60
2019-01-16T15:19:54.550Z,93.50
2019-01-16T15:22:50.946Z,93.00
2019-01-16T15:25:37.592Z,93.60
2019-01-16T15:28:19.484Z,94.10
2019-01-16T15:31:12.809Z,94.20
2019-01-16T15:34:11.428Z,94.40
2019-01-16T15:37:00.986Z,94.70
2019-01-16T15:40:10.240Z,95.40
2019-01-16T15:42:58.878Z,95.70
2019-01-16T15:45:47.123Z,96.30
2019-01-16T15:48:49.240Z,96.60
2019-01-16T15:51:37.807Z,96.60
2019-01-16T15:54:38.403Z,96.80
2019-01-16T15:57:26.834Z,97.40
2019-01-16T16:00:15.177Z,98.00
2019-01-16T16:03:15.381Z,98.30
2019-01-16T16:06:17.824Z,98.50
2019-01-16T16:09:11.444Z,98.80
2019-01-16T16:12:30.435Z,99.30
2019-01-16T16:15:35.138Z,99.80
2019-01-16T16:18:39.864Z,99.90
2019-01-16T16:21:27.683Z,99.90
2019-01-16T16:24:33.878Z,99.90
2019-01-16T16:27:32.898Z,99.90
2019-01-16T16:30:32.720Z,99.90
2019-01-16T16:33:26.097Z,99.90
2019-01-16T16:36:21.765Z,99.90
2019-01-16T16:39:21.841Z,99.90
2019-01-16T16:42:05.935Z,99.90
2019-01-16T16:45:01.410Z,99.90
2019-01-16T16:48:03.427Z,99.90
2019-01-16T16:50:51.587Z,99.90
2019-01-16T16:53:40.861Z,99.90
2019-01-16T16:56:36.550Z,99.90
2019-01-16T16:59:25.144Z,99.90
2019-01-16T17:02:30.149Z,99.90
2019-01-16T17:05:18.304Z,99.90
2019-01-16T17:08:02.890Z,99.90
2019-01-16T17:10:53.637Z,99.90
2019-01-16T17:13:49.356Z,99.90
2019-01-16T17:16:34.836Z,99.90
2019-01-16T17:19:33.739Z,99.90
2019-01-16T17:22:35.613Z,99.90
2019-01-16T17:25:35.113Z,99.90
2019-01-16T17:28:25.480Z,99.90
2019-01-16T17:31:14.136Z,99.90
2019-01-16T17:34:18.868Z,99.90
2019-01-16T17:37:07.761Z,99.90
2019-01-16T17:40:06.677Z,99.90
2019-01-16T17:42:55.206Z,99.90
2019-01-16T17:45:43.544Z,99.90
2019-01-16T17:48:33.142Z,99.90
2019-01-16T17:51:26.488Z,99.90
2019-01-16T17:54:15.536Z,99.90
2019-01-16T17:57:05.555Z,99.90
2019-01-16T18:00:03.465Z,99.90
2019-01-16T18:02:56.255Z,99.90
2019-01-16T18:05:57.080Z,99.90
2019-01-16T18:09:14.224Z,99.90
2019-01-16T18:12:03.803Z,99.90
2019-01-16T18:14:41.245Z,99.90
2019-01-16T18:17:36.599Z,99.90
2019-01-16T18:20:29.639Z,99.90
2019-01-16T18:23:18.063Z,99.90
2019-01-16T18:26:10.382Z,99.90
2019-01-16T18:28:48.260Z,99.90
2019-01-16T18:31:37.908Z,99.90
2019-01-16T18:34:33.755Z,99.90
2019-01-16T18:37:36.021Z,99.90
2019-01-16T18:40:45.557Z,99.90
2019-01-16T18:43:39.898Z,99.90
2019-01-16T18:46:32.596Z,99.90
2019-01-16T18:49:22.187Z,99.90
2019-01-16T18:52:10.815Z,99.90
2019-01-16T18:54:59.725Z,99.90
2019-01-16T18:57:51.133Z,99.90
2019-01-16T19:00:51.022Z,99.90
2019-01-16T19:03:40.842Z,99.90
2019-01-16T19:06:28.827Z,99.90
2019-01-16T19:09:17.805Z,99.90
2019-01-16T19:12:13.419Z,99.90
2019-01-16T19:15:12.232Z,99.90
2019-01-16T19:18:18.419Z,99.90
2019-01-16T19:21:08.156Z,99.90
2019-01-16T19:24:03.291Z,99.90
2019-01-16T19:26:45.055Z,99.90
2019-01-16T19:29:50.762Z,99.90
2019-01-16T19:32:52.629Z,99.90
2019-01-16T19:35:53.455Z,99.90
2019-01-16T19:39:00.906Z,99.90
2019-01-16T19:41:49.449Z,99.90
2019-01-16T19:44:38.523Z,99.90
2019-01-16T19:48:02.151Z,99.90
2019-01-16T19:50:57.098Z,99.90
2019-01-16T19:53:57.792Z,99.90
2019-01-16T19:57:04.249Z,99.90
2019-01-16T20:00:03.187Z,99.90
2019-01-16T20:02:51.113Z,99.90
2019-01-16T20:05:43.995Z,99.90
2019-01-16T20:09:03.465Z,99.90
2019-01-16T20:12:09.429Z,99.90
2019-01-16T20:14:52.339Z,99.90
2019-01-16T20:17:52.674Z,99.90
2019-01-16T20:20:48.414Z,99.90
2019-01-16T20:23:49.432Z,99.90
2019-01-16T20:26:39.297Z,99.90
2019-01-16T20:29:44.248Z,99.90
2019-01-16T20:32:23.499Z,99.90
2019-01-16T20:35:26.175Z,99.90
2019-01-16T20:38:07.998Z,99.90
2019-01-16T20:40:58.604Z,99.90
2019-01-16T20:43:48.544Z,99.90
2019-01-16T20:46:34.987Z,99.90
2019-01-16T20:49:21.690Z,99.90
2019-01-16T20:52:07.792Z,99.90
2019-01-16T20:55:01.012Z,99.90
2019-01-16T20:58:08.295Z,99.90
2019-01-16T21:00:54.101Z,99.90
2019-01-16T21:03:49.886Z,99.90
2019-01-16T21:07:07.157Z,99.90
2019-01-16T21:10:15.062Z,99.90
2019-01-16T21:13:03.504Z,99.90
2019-01-16T21:15:56.825Z,99.90
2019-01-16T21:18:45.816Z,99.90
2019-01-16T21:21:34.078Z,99.90
2019-01-16T21:24:14.204Z,99.90
2019-01-16T21:27:08.479Z,99.90
2019-01-16T21:30:13.972Z,99.90
2019-01-16T21:33:10.332Z,99.90
2019-01-16T21:35:58.878Z,99.90
2019-01-16T21:38:54.956Z,99.90
2019-01-16T21:42:24.831Z,99.90
2019-01-16T21:45:08.548Z,99.90
2019-01-16T21:48:03.100Z,99.90
2019-01-16T21:50:56.758Z,99.90
2019-01-16T21:54:02.337Z,99.90
2019-01-16T21:56:57.879Z,99.90
2019-01-16T21:59:41.095Z,99.90
2019-01-16T22:02:42.936Z,99.90
2019-01-16T22:05:25.262Z,99.90
2019-01-16T22:08:24.034Z,99.90
2019-01-16T22:11:34.723Z,99.90
2019-01-16T22:14:27.631Z,99.90
2019-01-16T22:17:17.619Z,99.90
2019-01-16T22:20:11.717Z,99.90
2019-01-16T22:23:00.990Z,99.90
2019-01-16T22:25:45.729Z,99.90
2019-01-16T22:28:30.407Z,99.90
2019-01-16T22:31:22.666Z,99.90
2019-01-16T22:34:13.760Z,99.90
2019-01-16T22:37:00.566Z,99.90
2019-01-16T22:39:53.427Z,99.90
2019-01-16T22:42:41.560Z,99.90
2019-01-16T22:45:37.075Z,99.90
2019-01-16T22:48:39.068Z,99.90
2019-01-16T22:51:37.635Z,99.90
2019-01-16T22:54:30.441Z,99.90
2019-01-16T22:57:19.771Z,99.90
2019-01-16T23:00:01.445Z,99.90
2019-01-16T23:02:47.447Z,99.90
2019-01-16T23:05:52.660Z,99.90
2019-01-16T23:08:42.814Z,99.90
2019-01-16T23:11:38.392Z,99.90
2019-01-16T23:14:20.520Z,99.90
2019-01-16T23:17:09.536Z,99.90
2019-01-16T23:20:05.167Z,99.90
2019-01-16T23:22:47.608Z,99.90
2019-01-16T23:25:37.937Z,99.90
2019-01-16T23:29:03.684Z,99.90
2019-01-16T23:32:09.541Z,99.90
2019-01-16T23:35:08.336Z,99.90
2019-01-16T23:38:17.360Z,99.90
2019-01-16T23:41:22.202Z,99.90
2019-01-16T23:44:21.333Z,99.90
2019-01-16T23:47:08.715Z,99.90
2019-01-16T23:49:52.148Z,99.90
2019-01-16T23:52:39.763Z,99.90
2019-01-16T23:55:35.913Z,99.90
2019-01-16T23:58:24.449Z,99.90
